createdAt,value
2023-05-15T00:02:24.411Z,67.58
2023-05-15T00:07:45.307Z,67.83
2023-05-15T00:13:06.127Z,67.75
2023-05-15T00:18:27.385Z,68.05
2023-05-15T00:23:49.099Z,68.06
2023-05-15T00:29:10.279Z,68.26
2023-05-15T00:34:33.250Z,68.28
2023-05-15T00:39:54.187Z,68.25
2023-05-15T00:45:15.905Z,68.09
2023-05-15T00:50:37.200Z,68.34
2023-05-15T00:55:59.550Z,68.66
2023-05-15T01:01:20.453Z,68.58
2023-05-15T01:06:41.607Z,68.92
2023-05-15T01:12:04.968Z,69.00
2023-05-15T01:17:26.085Z,68.91
2023-05-15T01:23:00.598Z,68.72
2023-05-15T01:28:45.719Z,68.84
2023-05-15T01:34:09.737Z,68.85
2023-05-15T01:39:33.943Z,68.88
2023-05-15T01:44:57.044Z,69.01
2023-05-15T01:50:20.782Z,69.00
2023-05-15T01:55:42.644Z,68.97
2023-05-15T02:01:04.909Z,69.28
2023-05-15T02:06:26.163Z,69.13
2023-05-15T02:11:48.100Z,69.46
2023-05-15T02:17:09.125Z,69.41
2023-05-15T02:22:29.889Z,69.55
2023-05-15T02:28:00.762Z,69.13
2023-05-15T02:33:21.898Z,69.30
2023-05-15T02:38:49.305Z,69.29
2023-05-15T02:44:12.150Z,69.44
2023-05-15T02:49:33.424Z,69.15
2023-05-15T02:54:54.645Z,69.46
2023-05-15T03:00:16.344Z,69.38
2023-05-15T03:05:37.298Z,69.34
2023-05-15T03:10:58.373Z,69.75
2023-05-15T03:16:19.487Z,69.43
2023-05-15T03:21:40.588Z,69.49
2023-05-15T03:27:01.393Z,69.89
2023-05-15T03:32:23.237Z,69.76
2023-05-15T03:37:44.222Z,69.89
2023-05-15T03:43:06.397Z,70.00
2023-05-15T03:48:27.149Z,70.12
2023-05-15T03:53:47.915Z,70.12
2023-05-15T03:59:08.842Z,69.76
2023-05-15T04:04:29.753Z,70.31
2023-05-15T04:09:53.374Z,70.05
2023-05-15T04:15:22.989Z,70.10
2023-05-15T04:20:43.969Z,70.17
2023-05-15T04:26:04.872Z,70.16
2023-05-15T04:31:27.351Z,70.13
2023-05-15T04:36:51.465Z,70.32
2023-05-15T04:42:12.513Z,70.37
2023-05-15T04:47:33.369Z,70.48
2023-05-15T04:52:54.424Z,70.67
2023-05-15T04:58:15.070Z,70.54
2023-05-15T05:03:35.915Z,70.34
2023-05-15T05:08:58.469Z,70.19
2023-05-15T05:14:19.820Z,70.51
2023-05-15T05:19:42.216Z,70.24
2023-05-15T05:25:03.603Z,70.21
2023-05-15T05:30:24.700Z,70.61
2023-05-15T05:35:45.282Z,70.56
2023-05-15T05:41:06.241Z,70.51
2023-05-15T05:46:27.435Z,70.73
2023-05-15T05:51:48.673Z,70.46
2023-05-15T05:57:09.840Z,70.79
2023-05-15T06:02:31.300Z,70.56
2023-05-15T06:07:53.792Z,71.13
2023-05-15T06:13:15.283Z,70.87
2023-05-15T06:18:36.131Z,70.67
2023-05-15T06:23:56.873Z,70.83
2023-05-15T06:29:17.651Z,70.99
2023-05-15T06:34:38.462Z,70.58
2023-05-15T06:39:59.353Z,70.98
2023-05-15T06:45:20.003Z,71.04
2023-05-15T06:50:40.810Z,70.68
2023-05-15T06:56:01.760Z,71.29
2023-05-15T07:01:22.707Z,71.21
2023-05-15T07:06:43.602Z,71.12
2023-05-15T07:12:04.801Z,71.39
2023-05-15T07:17:25.721Z,71.31
2023-05-15T07:22:55.822Z,71.52
2023-05-15T07:28:19.147Z,71.37
2023-05-15T07:33:41.200Z,71.78
2023-05-15T07:39:02.105Z,71.31
2023-05-15T07:44:23.151Z,71.58
2023-05-15T07:49:47.382Z,71.52
2023-05-15T07:55:10.612Z,71.64
2023-05-15T08:00:31.788Z,71.88
2023-05-15T08:05:52.956Z,72.03
2023-05-15T08:11:13.963Z,72.13
2023-05-15T08:16:35.185Z,71.95
2023-05-15T08:21:55.847Z,71.87
2023-05-15T08:27:16.773Z,72.07
2023-05-15T08:32:37.742Z,72.14
2023-05-15T08:37:59.330Z,72.10
2023-05-15T08:43:22.758Z,72.34
2023-05-15T08:48:44.233Z,72.25
2023-05-15T08:54:07.427Z,72.91
2023-05-15T08:59:29.188Z,72.04
2023-05-15T09:04:51.757Z,72.33
2023-05-15T09:10:14.355Z,72.21
2023-05-15T09:15:35.407Z,72.49
2023-05-15T09:20:56.664Z,72.35
2023-05-15T09:26:17.414Z,72.05
2023-05-15T09:31:38.307Z,72.36
2023-05-15T09:37:00.948Z,71.91
2023-05-15T09:42:24.750Z,71.89
2023-05-15T09:47:47.351Z,71.60
2023-05-15T09:53:12.868Z,71.64
2023-05-15T09:58:35.348Z,71.62
2023-05-15T10:04:00.827Z,71.53
2023-05-15T10:09:33.774Z,71.64
2023-05-15T10:14:57.441Z,72.08
2023-05-15T10:20:26.221Z,72.01
2023-05-15T10:26:02.118Z,71.97
2023-05-15T10:31:25.393Z,72.16
2023-05-15T10:36:49.526Z,71.86
2023-05-15T10:42:13.546Z,71.88
2023-05-15T10:47:35.487Z,71.83
2023-05-15T10:52:56.693Z,71.63
2023-05-15T10:58:18.050Z,71.32
2023-05-15T11:03:48.583Z,71.15
2023-05-15T11:09:22.572Z,71.02
2023-05-15T11:15:04.568Z,70.95
2023-05-15T11:20:43.007Z,70.77
2023-05-15T11:26:05.785Z,70.88
2023-05-15T11:31:32.707Z,70.08
2023-05-15T11:36:53.580Z,70.03
2023-05-15T11:42:17.481Z,69.76
2023-05-15T11:47:38.525Z,69.88
2023-05-15T11:53:10.691Z,69.07
2023-05-15T11:58:32.002Z,69.74
2023-05-15T12:03:54.403Z,68.98
2023-05-15T12:09:17.568Z,69.47
2023-05-15T12:14:40.117Z,69.41
2023-05-15T12:20:01.445Z,68.69
2023-05-15T12:25:22.703Z,68.50
2023-05-15T12:30:43.930Z,68.14
2023-05-15T12:36:05.164Z,68.07
2023-05-15T12:41:29.563Z,68.08
2023-05-15T12:46:54.976Z,68.07
2023-05-15T12:52:16.717Z,68.03
2023-05-15T12:57:37.778Z,67.54
2023-05-15T13:02:59.603Z,67.78
2023-05-15T13:08:20.693Z,67.02
2023-05-15T13:13:43.595Z,67.20
2023-05-15T13:19:05.711Z,66.91
2023-05-15T13:24:27.111Z,66.82
2023-05-15T13:29:48.598Z,66.79
2023-05-15T13:35:10.453Z,66.23
2023-05-15T13:40:37.293Z,66.03
2023-05-15T13:45:58.331Z,65.86
2023-05-15T13:51:19.103Z,65.59
2023-05-15T13:56:39.940Z,65.78
2023-05-15T14:02:00.589Z,64.95
2023-05-15T14:07:24.678Z,64.95
2023-05-15T14:12:47.064Z,64.96
2023-05-15T14:18:08.177Z,65.11
2023-05-15T14:23:29.360Z,65.46
2023-05-15T14:28:50.850Z,65.62
2023-05-15T14:34:11.587Z,65.43
2023-05-15T14:39:32.863Z,65.26
2023-05-15T14:44:53.561Z,64.80
2023-05-15T14:50:14.305Z,64.82
2023-05-15T14:55:35.190Z,64.20
2023-05-15T15:00:56.486Z,64.35
2023-05-15T15:06:17.463Z,64.45
2023-05-15T15:11:38.399Z,64.39
2023-05-15T15:16:59.100Z,64.37
2023-05-15T15:22:19.878Z,64.02
2023-05-15T15:27:41.012Z,64.13
2023-05-15T15:33:02.003Z,64.22
2023-05-15T15:38:22.995Z,64.51
2023-05-15T15:43:44.032Z,64.45
2023-05-15T15:49:06.777Z,64.03
2023-05-15T15:54:29.016Z,64.17
2023-05-15T15:59:50.218Z,64.06
2023-05-15T16:05:11.079Z,63.79
2023-05-15T16:10:32.064Z,63.91
2023-05-15T16:15:53.149Z,63.58
2023-05-15T16:21:14.521Z,63.92
2023-05-15T16:26:38.028Z,63.58
2023-05-15T16:31:59.549Z,63.78
2023-05-15T16:37:23.629Z,64.20
2023-05-15T16:42:44.894Z,64.01
2023-05-15T16:48:06.310Z,63.95
2023-05-15T16:53:27.483Z,64.27
2023-05-15T16:58:48.439Z,64.29
2023-05-15T17:04:10.453Z,64.47
2023-05-15T17:09:31.226Z,64.50
2023-05-15T17:14:52.437Z,64.64
2023-05-15T17:20:13.824Z,64.27
2023-05-15T17:25:36.486Z,64.42
2023-05-15T17:30:57.259Z,64.48
2023-05-15T17:36:18.063Z,64.32
2023-05-15T17:41:39.229Z,64.46
2023-05-15T17:47:02.361Z,64.38
2023-05-15T17:52:23.266Z,64.72
2023-05-15T17:57:49.848Z,64.44
2023-05-15T18:03:11.361Z,64.77
2023-05-15T18:08:32.524Z,64.83
2023-05-15T18:13:53.421Z,65.16
2023-05-15T18:19:14.738Z,65.14
2023-05-15T18:24:35.784Z,64.97
2023-05-15T18:29:56.916Z,65.31
2023-05-15T18:35:18.345Z,65.21
2023-05-15T18:40:39.505Z,65.22
2023-05-15T18:46:00.595Z,65.56
2023-05-15T18:51:21.565Z,65.27
2023-05-15T18:56:43.273Z,65.66
2023-05-15T19:02:04.543Z,65.75
2023-05-15T19:07:28.826Z,65.70
2023-05-15T19:12:49.739Z,65.67
2023-05-15T19:18:11.051Z,65.68
2023-05-15T19:23:32.425Z,65.86
2023-05-15T19:28:53.448Z,65.83
2023-05-15T19:34:14.620Z,65.84
2023-05-15T19:39:36.045Z,65.90
2023-05-15T19:44:57.200Z,65.94
2023-05-15T19:50:18.776Z,66.34
2023-05-15T19:55:40.402Z,66.25
2023-05-15T20:01:01.647Z,66.31
2023-05-15T20:06:22.676Z,66.25
2023-05-15T20:11:43.705Z,66.41
2023-05-15T20:17:05.243Z,66.62
2023-05-15T20:22:26.572Z,66.60
2023-05-15T20:27:48.458Z,66.82
2023-05-15T20:33:10.023Z,66.41
2023-05-15T20:38:31.281Z,66.67
2023-05-15T20:43:52.224Z,66.67
2023-05-15T20:49:13.797Z,66.54
2023-05-15T20:54:35.706Z,66.47
2023-05-15T20:59:56.632Z,66.26
2023-05-15T21:05:19.743Z,66.31
2023-05-15T21:10:41.253Z,66.21
2023-05-15T21:16:02.301Z,66.16
2023-05-15T21:21:23.474Z,65.82
2023-05-15T21:26:44.436Z,65.87
2023-05-15T21:32:06.681Z,65.98
2023-05-15T21:37:32.563Z,65.40
2023-05-15T21:42:53.775Z,65.51
2023-05-15T21:48:15.081Z,65.26
2023-05-15T21:53:36.072Z,65.39
2023-05-15T21:58:57.323Z,65.63
2023-05-15T22:04:18.106Z,65.39
2023-05-15T22:09:38.967Z,65.39
2023-05-15T22:15:00.571Z,65.52
2023-05-15T22:20:21.509Z,65.26
2023-05-15T22:25:42.970Z,65.46
2023-05-15T22:31:04.356Z,65.67
2023-05-15T22:36:25.403Z,65.57
2023-05-15T22:41:47.637Z,66.07
2023-05-15T22:47:08.703Z,66.04
2023-05-15T22:52:29.446Z,66.25
2023-05-15T22:57:50.160Z,65.88
2023-05-15T23:03:12.576Z,65.91
2023-05-15T23:08:33.320Z,65.82
2023-05-15T23:13:54.803Z,65.29
2023-05-15T23:19:18.799Z,65.63
2023-05-15T23:24:39.840Z,65.29
2023-05-15T23:30:00.777Z,65.13
2023-05-15T23:35:21.896Z,65.35
2023-05-15T23:40:42.569Z,65.50
2023-05-15T23:46:03.476Z,65.67
2023-05-15T23:51:24.471Z,65.80
2023-05-15T23:56:45.876Z,66.29
